sensor_id;sensor_type;location;lat;lon;timestamp;temperature;humidity
19999;DHT22;10160;50.926;4.374;2022-12-01T00:00:00;7.90;99.90
19999;DHT22;10160;50.926;4.374;2022-12-01T00:02:28;8.00;99.90
19999;DHT22;10160;50.926;4.374;2022-12-01T00:04:54;8.00;99.90
19999;DHT22;10160;50.926;4.374;2022-12-01T00:07:20;8.00;99.90
19999;DHT22;10160;50.926;4.374;2022-12-01T00:09:46;8.00;99.90
19999;DHT22;10160;50.926;4.374;2022-12-01T00:12:30;8.10;99.90
19999;DHT22;10160;50.926;4.374;2022-12-01T00:14:55;7.90;99.90
19999;DHT22;10160;50.926;4.374;2022-12-01T00:17:27;8.00;99.90
19999;DHT22;10160;50.926;4.374;2022-12-01T00:19:53;7.80;99.90
19999;DHT22;10160;50.926;4.374;2022-12-01T00:22:21;7.80;99.90
19999;DHT22;10160;50.926;4.374;2022-12-01T00:24:47;7.90;99.90
19999;DHT22;10160;50.926;4.374;2022-12-01T00:27:13;7.90;99.90
19999;DHT22;10160;50.926;4.374;2022-12-01T00:29:39;7.90;99.90
19999;DHT22;10160;50.926;4.374;2022-12-01T00:32:05;7.80;99.90
19999;DHT22;10160;50.926;4.374;2022-12-01T00:34:30;8.00;99.90
19999;DHT22;10160;50.926;4.374;2022-12-01T00:36:56;8.10;99.90
19999;DHT22;10160;50.926;4.374;2022-12-01T00:39:22;8.00;99.90
19999;DHT22;10160;50.926;4.374;2022-12-01T00:41:47;8.00;99.90
19999;DHT22;10160;50.926;4.374;2022-12-01T00:44:13;8.10;99.90
19999;DHT22;10160;50.926;4.374;2022-12-01T00:46:38;8.00;99.90
19999;DHT22;10160;50.926;4.374;2022-12-01T00:49:04;8.10;99.90
19999;DHT22;10160;50.926;4.374;2022-12-01T00:51:30;8.10;99.90
19999;DHT22;10160;50.926;4.374;2022-12-01T00:53:56;8.10;99.90
19999;DHT22;10160;50.926;4.374;2022-12-01T00:56:22;8.10;99.90
19999;DHT22;10160;50.926;4.374;2022-12-01T00:58:48;8.10;99.90
19999;DHT22;10160;50.926;4.374;2022-12-01T01:01:13;8.20;99.90
19999;DHT22;10160;50.926;4.374;2022-12-01T01:03:39;8.30;99.90
19999;DHT22;10160;50.926;4.374;2022-12-01T01:06:07;8.20;99.90
19999;DHT22;10160;50.926;4.374;2022-12-01T01:08:33;8.00;99.90
19999;DHT22;10160;50.926;4.374;2022-12-01T01:11:00;7.90;99.90
19999;DHT22;10160;50.926;4.374;2022-12-01T01:13:26;7.80;99.90
19999;DHT22;10160;50.926;4.374;2022-12-01T01:16:00;7.80;99.90
19999;DHT22;10160;50.926;4.374;2022-12-01T01:18:27;7.80;99.90
19999;DHT22;10160;50.926;4.374;2022-12-01T01:20:58;7.80;99.90
19999;DHT22;10160;50.926;4.374;2022-12-01T01:23:24;8.00;99.90
19999;DHT22;10160;50.926;4.374;2022-12-01T01:25:50;8.10;99.90
19999;DHT22;10160;50.926;4.374;2022-12-01T01:28:15;8.00;99.90
19999;DHT22;10160;50.926;4.374;2022-12-01T01:30:41;8.10;99.90
19999;DHT22;10160;50.926;4.374;2022-12-01T01:33:07;8.10;99.90
19999;DHT22;10160;50.926;4.374;2022-12-01T01:35:32;8.10;99.90
19999;DHT22;10160;50.926;4.374;2022-12-01T01:37:58;8.20;99.90
19999;DHT22;10160;50.926;4.374;2022-12-01T01:40:24;8.20;99.90
19999;DHT22;10160;50.926;4.374;2022-12-01T01:42:49;8.20;99.90
19999;DHT22;10160;50.926;4.374;2022-12-01T01:45:28;8.10;99.90
19999;DHT22;10160;50.926;4.374;2022-12-01T01:47:56;8.30;99.90
19999;DHT22;10160;50.926;4.374;2022-12-01T01:50:25;8.20;99.90
19999;DHT22;10160;50.926;4.374;2022-12-01T01:53:00;8.20;99.90
19999;DHT22;10160;50.926;4.374;2022-12-01T01:55:28;8.20;99.90
19999;DHT22;10160;50.926;4.374;2022-12-01T01:57:56;8.20;99.90
19999;DHT22;10160;50.926;4.374;2022-12-01T02:00:21;8.10;99.90
19999;DHT22;10160;50.926;4.374;2022-12-01T02:02:48;8.10;99.90
19999;DHT22;10160;50.926;4.374;2022-12-01T02:05:27;8.10;99.90
19999;DHT22;10160;50.926;4.374;2022-12-01T02:07:55;8.20;99.90
19999;DHT22;10160;50.926;4.374;2022-12-01T02:10:43;8.20;99.90
19999;DHT22;10160;50.926;4.374;2022-12-01T02:16:02;8.10;99.90
19999;DHT22;10160;50.926;4.374;2022-12-01T02:18:46;8.10;99.90
19999;DHT22;10160;50.926;4.374;2022-12-01T02:27:03;8.20;99.90
19999;DHT22;10160;50.926;4.374;2022-12-01T02:29:37;8.20;99.90
19999;DHT22;10160;50.926;4.374;2022-12-01T02:32:28;8.40;99.90
19999;DHT22;10160;50.926;4.374;2022-12-01T02:38:39;8.10;99.90
19999;DHT22;10160;50.926;4.374;2022-12-01T02:41:14;8.00;99.90
19999;DHT22;10160;50.926;4.374;2022-12-01T02:43:55;8.00;99.90
19999;DHT22;10160;50.926;4.374;2022-12-01T02:46:26;8.00;99.90
19999;DHT22;10160;50.926;4.374;2022-12-01T02:48:58;8.00;99.90
19999;DHT22;10160;50.926;4.374;2022-12-01T02:51:28;8.00;99.90
19999;DHT22;10160;50.926;4.374;2022-12-01T02:53:59;8.00;99.90
19999;DHT22;10160;50.926;4.374;2022-12-01T02:56:26;8.00;99.90
19999;DHT22;10160;50.926;4.374;2022-12-01T02:58:52;7.90;99.90
19999;DHT22;10160;50.926;4.374;2022-12-01T03:06:46;7.90;99.90
19999;DHT22;10160;50.926;4.374;2022-12-01T03:14:58;7.90;99.90
19999;DHT22;10160;50.926;4.374;2022-12-01T03:17:32;7.90;99.90
19999;DHT22;10160;50.926;4.374;2022-12-01T03:20:10;7.90;99.90
19999;DHT22;10160;50.926;4.374;2022-12-01T03:22:42;7.90;99.90
19999;DHT22;10160;50.926;4.374;2022-12-01T03:25:11;8.00;99.90
19999;DHT22;10160;50.926;4.374;2022-12-01T03:27:40;8.10;99.90
19999;DHT22;10160;50.926;4.374;2022-12-01T03:30:07;8.00;99.90
19999;DHT22;10160;50.926;4.374;2022-12-01T03:36:15;8.00;99.90
19999;DHT22;10160;50.926;4.374;2022-12-01T03:38:48;8.00;99.90
19999;DHT22;10160;50.926;4.374;2022-12-01T03:41:20;8.10;99.90
19999;DHT22;10160;50.926;4.374;2022-12-01T03:44:07;8.00;99.90
19999;DHT22;10160;50.926;4.374;2022-12-01T03:46:45;8.00;99.90
19999;DHT22;10160;50.926;4.374;2022-12-01T03:49:14;8.00;99.90
19999;DHT22;10160;50.926;4.374;2022-12-01T03:57:04;8.10;99.90
19999;DHT22;10160;50.926;4.374;2022-12-01T03:59:34;8.20;99.90
19999;DHT22;10160;50.926;4.374;2022-12-01T04:02:01;8.20;99.90
19999;DHT22;10160;50.926;4.374;2022-12-01T04:04:27;8.20;99.90
19999;DHT22;10160;50.926;4.374;2022-12-01T04:06:53;8.10;99.90
19999;DHT22;10160;50.926;4.374;2022-12-01T04:09:18;8.10;99.90
19999;DHT22;10160;50.926;4.374;2022-12-01T04:11:44;8.10;99.90
19999;DHT22;10160;50.926;4.374;2022-12-01T04:14:28;8.00;99.90
19999;DHT22;10160;50.926;4.374;2022-12-01T04:16:54;8.10;99.90
19999;DHT22;10160;50.926;4.374;2022-12-01T04:19:20;8.20;99.90
19999;DHT22;10160;50.926;4.374;2022-12-01T04:21:45;8.00;99.90
19999;DHT22;10160;50.926;4.374;2022-12-01T04:24:11;8.00;99.90
19999;DHT22;10160;50.926;4.374;2022-12-01T04:26:37;8.00;99.90
19999;DHT22;10160;50.926;4.374;2022-12-01T04:29:07;8.10;99.90
19999;DHT22;10160;50.926;4.374;2022-12-01T04:31:33;8.00;99.90
19999;DHT22;10160;50.926;4.374;2022-12-01T04:33:59;8.00;99.90
19999;DHT22;10160;50.926;4.374;2022-12-01T04:36:26;8.00;99.90
19999;DHT22;10160;50.926;4.374;2022-12-01T04:38:51;8.10;99.90
19999;DHT22;10160;50.926;4.374;2022-12-01T04:41:17;8.00;99.90
19999;DHT22;10160;50.926;4.374;2022-12-01T04:43:43;7.90;99.90
19999;DHT22;10160;50.926;4.374;2022-12-01T04:46:09;8.00;99.90
19999;DHT22;10160;50.926;4.374;2022-12-01T04:48:36;8.10;99.90
19999;DHT22;10160;50.926;4.374;2022-12-01T04:51:03;8.10;99.90
19999;DHT22;10160;50.926;4.374;2022-12-01T04:53:29;8.10;99.90
19999;DHT22;10160;50.926;4.374;2022-12-01T04:55:55;8.10;99.90
19999;DHT22;10160;50.926;4.374;2022-12-01T04:58:21;8.10;99.90
19999;DHT22;10160;50.926;4.374;2022-12-01T05:00:46;8.10;99.90
19999;DHT22;10160;50.926;4.374;2022-12-01T05:03:12;8.00;99.90
19999;DHT22;10160;50.926;4.374;2022-12-01T05:05:38;8.00;99.90
19999;DHT22;10160;50.926;4.374;2022-12-01T05:08:04;8.00;99.90
19999;DHT22;10160;50.926;4.374;2022-12-01T05:10:29;8.00;99.90
19999;DHT22;10160;50.926;4.374;2022-12-01T05:12:55;8.00;99.90
19999;DHT22;10160;50.926;4.374;2022-12-01T05:15:23;8.00;99.90
19999;DHT22;10160;50.926;4.374;2022-12-01T05:17:48;8.00;99.90
19999;DHT22;10160;50.926;4.374;2022-12-01T05:20:22;8.20;99.90
19999;DHT22;10160;50.926;4.374;2022-12-01T05:23:06;8.20;99.90
19999;DHT22;10160;50.926;4.374;2022-12-01T05:25:32;8.20;99.90
19999;DHT22;10160;50.926;4.374;2022-12-01T05:27:58;8.00;99.90
19999;DHT22;10160;50.926;4.374;2022-12-01T05:30:24;8.00;99.90
19999;DHT22;10160;50.926;4.374;2022-12-01T05:32:50;8.00;99.90
19999;DHT22;10160;50.926;4.374;2022-12-01T05:35:16;8.00;99.90
19999;DHT22;10160;50.926;4.374;2022-12-01T05:37:41;8.00;99.90
19999;DHT22;10160;50.926;4.374;2022-12-01T05:40:07;8.10;99.90
19999;DHT22;10160;50.926;4.374;2022-12-01T05:42:33;8.10;99.90
19999;DHT22;10160;50.926;4.374;2022-12-01T05:44:59;8.00;99.90
19999;DHT22;10160;50.926;4.374;2022-12-01T05:47:25;8.10;99.90
19999;DHT22;10160;50.926;4.374;2022-12-01T05:49:50;8.10;99.90
19999;DHT22;10160;50.926;4.374;2022-12-01T05:52:16;8.10;99.90
19999;DHT22;10160;50.926;4.374;2022-12-01T05:54:42;8.10;99.90
19999;DHT22;10160;50.926;4.374;2022-12-01T05:57:07;8.10;99.90
19999;DHT22;10160;50.926;4.374;2022-12-01T05:59:33;8.00;99.90
19999;DHT22;10160;50.926;4.374;2022-12-01T06:01:59;8.10;99.90
19999;DHT22;10160;50.926;4.374;2022-12-01T06:04:24;8.00;99.90
19999;DHT22;10160;50.926;4.374;2022-12-01T06:06:50;7.90;99.90
19999;DHT22;10160;50.926;4.374;2022-12-01T06:09:16;8.00;99.90
19999;DHT22;10160;50.926;4.374;2022-12-01T06:11:41;8.00;99.90
19999;DHT22;10160;50.926;4.374;2022-12-01T06:14:07;8.10;99.90
19999;DHT22;10160;50.926;4.374;2022-12-01T06:16:33;8.20;99.90
19999;DHT22;10160;50.926;4.374;2022-12-01T06:18:59;8.10;99.90
19999;DHT22;10160;50.926;4.374;2022-12-01T06:21:24;8.00;99.90
19999;DHT22;10160;50.926;4.374;2022-12-01T06:23:50;8.10;99.90
19999;DHT22;10160;50.926;4.374;2022-12-01T06:26:16;8.10;99.90
19999;DHT22;10160;50.926;4.374;2022-12-01T06:28:41;8.20;99.90
19999;DHT22;10160;50.926;4.374;2022-12-01T06:31:07;8.20;99.90
19999;DHT22;10160;50.926;4.374;2022-12-01T06:33:33;8.10;99.90
19999;DHT22;10160;50.926;4.374;2022-12-01T06:36:03;8.20;99.90
19999;DHT22;10160;50.926;4.374;2022-12-01T06:38:33;8.10;99.90
19999;DHT22;10160;50.926;4.374;2022-12-01T06:41:00;8.00;99.90
19999;DHT22;10160;50.926;4.374;2022-12-01T06:43:26;7.90;99.90
19999;DHT22;10160;50.926;4.374;2022-12-01T06:45:52;8.00;99.90
19999;DHT22;10160;50.926;4.374;2022-12-01T06:48:17;8.10;99.90
19999;DHT22;10160;50.926;4.374;2022-12-01T06:50:43;8.20;99.90
19999;DHT22;10160;50.926;4.374;2022-12-01T06:53:09;8.10;99.90
19999;DHT22;10160;50.926;4.374;2022-12-01T06:55:36;8.10;99.90
19999;DHT22;10160;50.926;4.374;2022-12-01T06:58:02;8.10;99.90
19999;DHT22;10160;50.926;4.374;2022-12-01T07:00:28;8.10;99.90
19999;DHT22;10160;50.926;4.374;2022-12-01T07:02:53;8.00;99.90
19999;DHT22;10160;50.926;4.374;2022-12-01T07:05:19;8.10;99.90
19999;DHT22;10160;50.926;4.374;2022-12-01T07:07:45;8.00;99.90
19999;DHT22;10160;50.926;4.374;2022-12-01T07:10:11;7.90;99.90
19999;DHT22;10160;50.926;4.374;2022-12-01T07:12:38;7.80;99.90
19999;DHT22;10160;50.926;4.374;2022-12-01T07:15:05;7.90;99.90
19999;DHT22;10160;50.926;4.374;2022-12-01T07:17:32;7.80;99.90
19999;DHT22;10160;50.926;4.374;2022-12-01T07:19:58;7.60;99.90
19999;DHT22;10160;50.926;4.374;2022-12-01T07:22:24;7.80;99.90
19999;DHT22;10160;50.926;4.374;2022-12-01T07:24:51;7.90;99.90
19999;DHT22;10160;50.926;4.374;2022-12-01T07:27:16;8.10;99.90
19999;DHT22;10160;50.926;4.374;2022-12-01T07:29:42;8.00;99.90
19999;DHT22;10160;50.926;4.374;2022-12-01T07:32:07;8.00;99.90
19999;DHT22;10160;50.926;4.374;2022-12-01T07:34:33;8.10;99.90
19999;DHT22;10160;50.926;4.374;2022-12-01T07:36:59;8.10;99.90
19999;DHT22;10160;50.926;4.374;2022-12-01T07:39:24;8.00;99.90
19999;DHT22;10160;50.926;4.374;2022-12-01T07:41:50;8.10;99.90
19999;DHT22;10160;50.926;4.374;2022-12-01T07:44:16;8.00;99.90
19999;DHT22;10160;50.926;4.374;2022-12-01T07:46:41;8.20;99.90
19999;DHT22;10160;50.926;4.374;2022-12-01T07:49:07;8.10;99.90
19999;DHT22;10160;50.926;4.374;2022-12-01T07:51:34;8.10;99.90
19999;DHT22;10160;50.926;4.374;2022-12-01T07:54:02;8.10;99.90
19999;DHT22;10160;50.926;4.374;2022-12-01T07:56:29;8.10;99.90
19999;DHT22;10160;50.926;4.374;2022-12-01T07:58:54;8.00;99.90
19999;DHT22;10160;50.926;4.374;2022-12-01T08:01:22;8.00;99.90
19999;DHT22;10160;50.926;4.374;2022-12-01T08:03:50;8.10;99.90
19999;DHT22;10160;50.926;4.374;2022-12-01T08:06:16;8.20;99.90
19999;DHT22;10160;50.926;4.374;2022-12-01T08:08:42;8.20;99.90
19999;DHT22;10160;50.926;4.374;2022-12-01T08:11:16;8.40;99.90
19999;DHT22;10160;50.926;4.374;2022-12-01T08:13:43;8.30;99.90
19999;DHT22;10160;50.926;4.374;2022-12-01T08:16:13;8.10;99.90
19999;DHT22;10160;50.926;4.374;2022-12-01T08:18:40;8.20;99.90
19999;DHT22;10160;50.926;4.374;2022-12-01T08:21:08;8.10;99.90
19999;DHT22;10160;50.926;4.374;2022-12-01T08:23:34;8.20;99.90
19999;DHT22;10160;50.926;4.374;2022-12-01T08:26:05;8.20;99.90
19999;DHT22;10160;50.926;4.374;2022-12-01T08:28:31;8.20;99.90
19999;DHT22;10160;50.926;4.374;2022-12-01T08:30:57;8.30;99.90
19999;DHT22;10160;50.926;4.374;2022-12-01T08:33:22;8.30;99.90
19999;DHT22;10160;50.926;4.374;2022-12-01T08:35:48;8.20;99.90
19999;DHT22;10160;50.926;4.374;2022-12-01T08:38:14;8.30;99.90
19999;DHT22;10160;50.926;4.374;2022-12-01T08:40:40;8.40;99.90
19999;DHT22;10160;50.926;4.374;2022-12-01T08:43:06;8.30;99.90
19999;DHT22;10160;50.926;4.374;2022-12-01T08:45:31;8.30;99.90
19999;DHT22;10160;50.926;4.374;2022-12-01T08:47:57;8.40;99.90
19999;DHT22;10160;50.926;4.374;2022-12-01T08:50:27;8.40;99.90
19999;DHT22;10160;50.926;4.374;2022-12-01T08:52:53;8.50;99.90
19999;DHT22;10160;50.926;4.374;2022-12-01T08:55:20;8.50;99.90
19999;DHT22;10160;50.926;4.374;2022-12-01T08:57:46;8.50;99.90
19999;DHT22;10160;50.926;4.374;2022-12-01T09:00:12;8.60;99.90
19999;DHT22;10160;50.926;4.374;2022-12-01T09:02:38;8.50;99.90
19999;DHT22;10160;50.926;4.374;2022-12-01T09:05:04;8.50;99.90
19999;DHT22;10160;50.926;4.374;2022-12-01T09:07:30;8.60;99.90
19999;DHT22;10160;50.926;4.374;2022-12-01T09:09:55;8.70;99.90
19999;DHT22;10160;50.926;4.374;2022-12-01T09:12:21;8.70;99.90
19999;DHT22;10160;50.926;4.374;2022-12-01T09:14:46;8.70;99.90
19999;DHT22;10160;50.926;4.374;2022-12-01T09:17:14;8.80;99.90
19999;DHT22;10160;50.926;4.374;2022-12-01T09:19:41;8.70;99.90
19999;DHT22;10160;50.926;4.374;2022-12-01T09:22:07;8.50;99.90
19999;DHT22;10160;50.926;4.374;2022-12-01T09:24:33;8.60;99.90
19999;DHT22;10160;50.926;4.374;2022-12-01T09:26:59;8.70;99.90
19999;DHT22;10160;50.926;4.374;2022-12-01T09:29:25;8.70;99.90
19999;DHT22;10160;50.926;4.374;2022-12-01T09:31:55;8.70;99.90
19999;DHT22;10160;50.926;4.374;2022-12-01T09:34:21;8.80;99.90
19999;DHT22;10160;50.926;4.374;2022-12-01T09:36:48;8.70;99.90
19999;DHT22;10160;50.926;4.374;2022-12-01T09:39:18;8.50;99.90
19999;DHT22;10160;50.926;4.374;2022-12-01T09:52:40;8.70;99.90
19999;DHT22;10160;50.926;4.374;2022-12-01T09:55:15;8.80;99.90
19999;DHT22;10160;50.926;4.374;2022-12-01T09:57:42;8.90;99.90
19999;DHT22;10160;50.926;4.374;2022-12-01T10:00:21;9.00;99.90
19999;DHT22;10160;50.926;4.374;2022-12-01T10:06:04;9.00;99.90
19999;DHT22;10160;50.926;4.374;2022-12-01T10:08:46;9.00;99.90
19999;DHT22;10160;50.926;4.374;2022-12-01T10:11:32;9.10;99.90
19999;DHT22;10160;50.926;4.374;2022-12-01T10:13:59;9.10;99.90
19999;DHT22;10160;50.926;4.374;2022-12-01T10:16:34;9.00;99.90
19999;DHT22;10160;50.926;4.374;2022-12-01T10:19:12;9.00;99.90
19999;DHT22;10160;50.926;4.374;2022-12-01T10:22:05;8.90;99.90
19999;DHT22;10160;50.926;4.374;2022-12-01T10:30:11;9.10;99.90
19999;DHT22;10160;50.926;4.374;2022-12-01T10:32:54;9.10;99.90
19999;DHT22;10160;50.926;4.374;2022-12-01T10:35:27;9.20;99.90
19999;DHT22;10160;50.926;4.374;2022-12-01T10:37:57;9.20;99.90
19999;DHT22;10160;50.926;4.374;2022-12-01T10:40:24;9.20;99.90
19999;DHT22;10160;50.926;4.374;2022-12-01T10:42:51;9.10;99.90
19999;DHT22;10160;50.926;4.374;2022-12-01T10:48:09;9.10;99.90
19999;DHT22;10160;50.926;4.374;2022-12-01T10:50:36;9.10;99.90
19999;DHT22;10160;50.926;4.374;2022-12-01T10:53:02;9.10;99.90
19999;DHT22;10160;50.926;4.374;2022-12-01T10:55:32;9.10;99.90
19999;DHT22;10160;50.926;4.374;2022-12-01T10:58:03;9.10;99.90
19999;DHT22;10160;50.926;4.374;2022-12-01T11:00:36;8.90;99.90
19999;DHT22;10160;50.926;4.374;2022-12-01T11:03:03;9.00;99.90
19999;DHT22;10160;50.926;4.374;2022-12-01T11:05:32;9.10;99.90
19999;DHT22;10160;50.926;4.374;2022-12-01T11:07:59;9.10;99.90
19999;DHT22;10160;50.926;4.374;2022-12-01T11:10:29;9.20;99.90
19999;DHT22;10160;50.926;4.374;2022-12-01T11:13:15;9.20;99.90
19999;DHT22;10160;50.926;4.374;2022-12-01T11:15:53;9.20;99.90
19999;DHT22;10160;50.926;4.374;2022-12-01T11:18:23;9.30;99.90
19999;DHT22;10160;50.926;4.374;2022-12-01T11:21:09;9.40;99.90
19999;DHT22;10160;50.926;4.374;2022-12-01T11:23:51;9.50;99.90
19999;DHT22;10160;50.926;4.374;2022-12-01T11:26:27;9.50;99.90
19999;DHT22;10160;50.926;4.374;2022-12-01T11:29:06;9.50;99.90
19999;DHT22;10160;50.926;4.374;2022-12-01T11:31:41;9.50;99.90
19999;DHT22;10160;50.926;4.374;2022-12-01T11:40:58;9.60;99.90
19999;DHT22;10160;50.926;4.374;2022-12-01T11:43:35;9.70;99.90
19999;DHT22;10160;50.926;4.374;2022-12-01T11:46:08;9.70;99.90
19999;DHT22;10160;50.926;4.374;2022-12-01T11:48:35;9.60;99.90
19999;DHT22;10160;50.926;4.374;2022-12-01T11:51:09;9.60;99.90
19999;DHT22;10160;50.926;4.374;2022-12-01T11:53:39;9.70;99.90
19999;DHT22;10160;50.926;4.374;2022-12-01T11:58:37;9.60;99.90
19999;DHT22;10160;50.926;4.374;2022-12-01T12:01:24;9.50;99.90
19999;DHT22;10160;50.926;4.374;2022-12-01T12:03:58;9.50;99.90
19999;DHT22;10160;50.926;4.374;2022-12-01T12:12:39;9.50;99.90
19999;DHT22;10160;50.926;4.374;2022-12-01T12:15:20;9.80;99.90
19999;DHT22;10160;50.926;4.374;2022-12-01T12:26:42;9.70;99.90
19999;DHT22;10160;50.926;4.374;2022-12-01T12:52:17;9.80;99.90
19999;DHT22;10160;50.926;4.374;2022-12-01T12:57:30;9.90;99.90
19999;DHT22;10160;50.926;4.374;2022-12-01T13:00:16;9.90;99.90
19999;DHT22;10160;50.926;4.374;2022-12-01T13:03:03;9.80;99.90
19999;DHT22;10160;50.926;4.374;2022-12-01T13:08:28;9.80;99.90
19999;DHT22;10160;50.926;4.374;2022-12-01T13:11:02;9.80;99.90
19999;DHT22;10160;50.926;4.374;2022-12-01T13:14:01;9.70;99.90
19999;DHT22;10160;50.926;4.374;2022-12-01T13:16:49;9.70;99.90
19999;DHT22;10160;50.926;4.374;2022-12-01T13:19:31;9.70;99.90
19999;DHT22;10160;50.926;4.374;2022-12-01T13:21:59;9.60;99.90
19999;DHT22;10160;50.926;4.374;2022-12-01T13:24:28;9.50;99.90
19999;DHT22;10160;50.926;4.374;2022-12-01T13:27:04;9.40;99.90
19999;DHT22;10160;50.926;4.374;2022-12-01T13:29:33;9.50;99.90
19999;DHT22;10160;50.926;4.374;2022-12-01T13:32:01;9.60;99.90
19999;DHT22;10160;50.926;4.374;2022-12-01T13:34:37;9.60;99.90
19999;DHT22;10160;50.926;4.374;2022-12-01T13:37:05;9.60;99.90
19999;DHT22;10160;50.926;4.374;2022-12-01T13:39:38;9.70;99.90
19999;DHT22;10160;50.926;4.374;2022-12-01T13:42:07;9.60;99.90
19999;DHT22;10160;50.926;4.374;2022-12-01T13:44:44;9.40;99.90
19999;DHT22;10160;50.926;4.374;2022-12-01T13:49:44;9.50;99.90
19999;DHT22;10160;50.926;4.374;2022-12-01T14:04:25;9.50;99.90
19999;DHT22;10160;50.926;4.374;2022-12-01T14:10:15;9.30;99.90
19999;DHT22;10160;50.926;4.374;2022-12-01T14:12:46;9.50;99.90
19999;DHT22;10160;50.926;4.374;2022-12-01T14:20:43;9.60;99.90
19999;DHT22;10160;50.926;4.374;2022-12-01T14:43:11;9.60;99.90
19999;DHT22;10160;50.926;4.374;2022-12-01T14:46:04;9.60;99.90
19999;DHT22;10160;50.926;4.374;2022-12-01T14:48:42;9.60;99.90
19999;DHT22;10160;50.926;4.374;2022-12-01T14:51:21;9.50;99.90
19999;DHT22;10160;50.926;4.374;2022-12-01T14:53:49;9.50;99.90
19999;DHT22;10160;50.926;4.374;2022-12-01T14:56:18;9.50;99.90
19999;DHT22;10160;50.926;4.374;2022-12-01T14:58:59;9.40;99.90
19999;DHT22;10160;50.926;4.374;2022-12-01T15:01:32;9.30;99.90
19999;DHT22;10160;50.926;4.374;2022-12-01T15:04:02;9.40;99.90
19999;DHT22;10160;50.926;4.374;2022-12-01T15:06:30;9.30;99.90
19999;DHT22;10160;50.926;4.374;2022-12-01T15:09:12;9.50;99.90
19999;DHT22;10160;50.926;4.374;2022-12-01T15:11:52;9.40;99.90
19999;DHT22;10160;50.926;4.374;2022-12-01T15:14:31;9.30;99.90
19999;DHT22;10160;50.926;4.374;2022-12-01T15:16:58;9.20;99.90
19999;DHT22;10160;50.926;4.374;2022-12-01T15:21:52;9.30;99.90
19999;DHT22;10160;50.926;4.374;2022-12-01T15:24:21;9.20;99.90
19999;DHT22;10160;50.926;4.374;2022-12-01T15:26:55;9.20;99.90
19999;DHT22;10160;50.926;4.374;2022-12-01T15:29:30;9.10;99.90
19999;DHT22;10160;50.926;4.374;2022-12-01T15:31:59;9.10;99.90
19999;DHT22;10160;50.926;4.374;2022-12-01T15:36:59;9.20;99.90
19999;DHT22;10160;50.926;4.374;2022-12-01T15:39:48;9.20;99.90
19999;DHT22;10160;50.926;4.374;2022-12-01T15:44:59;9.20;99.90
19999;DHT22;10160;50.926;4.374;2022-12-01T15:53:21;9.20;99.90
19999;DHT22;10160;50.926;4.374;2022-12-01T15:55:48;9.20;99.90
19999;DHT22;10160;50.926;4.374;2022-12-01T15:58:23;9.10;99.90
19999;DHT22;10160;50.926;4.374;2022-12-01T16:00:54;9.10;99.90
19999;DHT22;10160;50.926;4.374;2022-12-01T16:03:21;9.10;99.90
19999;DHT22;10160;50.926;4.374;2022-12-01T16:05:47;9.10;99.90
19999;DHT22;10160;50.926;4.374;2022-12-01T16:08:19;9.10;99.90
19999;DHT22;10160;50.926;4.374;2022-12-01T16:10:46;9.00;99.90
19999;DHT22;10160;50.926;4.374;2022-12-01T16:14:00;9.00;99.90
19999;DHT22;10160;50.926;4.374;2022-12-01T16:16:43;8.90;99.90
19999;DHT22;10160;50.926;4.374;2022-12-01T16:21:53;9.00;99.90
19999;DHT22;10160;50.926;4.374;2022-12-01T16:24:31;9.00;99.90
19999;DHT22;10160;50.926;4.374;2022-12-01T16:27:13;8.90;99.90
19999;DHT22;10160;50.926;4.374;2022-12-01T16:30:02;8.80;99.90
19999;DHT22;10160;50.926;4.374;2022-12-01T17:20:22;8.70;99.90
19999;DHT22;10160;50.926;4.374;2022-12-01T17:22:48;8.50;99.90
19999;DHT22;10160;50.926;4.374;2022-12-01T17:25:14;8.50;99.90
19999;DHT22;10160;50.926;4.374;2022-12-01T17:27:39;8.60;99.90
19999;DHT22;10160;50.926;4.374;2022-12-01T17:30:06;8.60;99.90
19999;DHT22;10160;50.926;4.374;2022-12-01T17:32:32;8.60;99.90
19999;DHT22;10160;50.926;4.374;2022-12-01T17:34:58;8.70;99.90
19999;DHT22;10160;50.926;4.374;2022-12-01T17:37:24;8.70;99.90
19999;DHT22;10160;50.926;4.374;2022-12-01T17:43:16;8.60;99.90
19999;DHT22;10160;50.926;4.374;2022-12-01T17:45:44;8.60;99.90
19999;DHT22;10160;50.926;4.374;2022-12-01T17:48:09;8.60;99.90
19999;DHT22;10160;50.926;4.374;2022-12-01T17:50:36;8.50;99.90
19999;DHT22;10160;50.926;4.374;2022-12-01T17:53:02;8.50;99.90
19999;DHT22;10160;50.926;4.374;2022-12-01T17:55:28;8.50;99.90
19999;DHT22;10160;50.926;4.374;2022-12-01T17:57:54;8.60;99.90
19999;DHT22;10160;50.926;4.374;2022-12-01T18:00:23;8.60;99.90
19999;DHT22;10160;50.926;4.374;2022-12-01T18:02:48;8.60;99.90
19999;DHT22;10160;50.926;4.374;2022-12-01T18:05:15;8.60;99.90
19999;DHT22;10160;50.926;4.374;2022-12-01T18:07:40;8.60;99.90
19999;DHT22;10160;50.926;4.374;2022-12-01T18:10:06;8.60;99.90
19999;DHT22;10160;50.926;4.374;2022-12-01T18:12:32;8.70;99.90
19999;DHT22;10160;50.926;4.374;2022-12-01T18:14:58;8.60;99.90
19999;DHT22;10160;50.926;4.374;2022-12-01T18:19:49;8.70;99.90
19999;DHT22;10160;50.926;4.374;2022-12-01T18:22:33;8.70;99.90
19999;DHT22;10160;50.926;4.374;2022-12-01T18:24:59;8.70;99.90
19999;DHT22;10160;50.926;4.374;2022-12-01T18:27:24;8.60;99.90
19999;DHT22;10160;50.926;4.374;2022-12-01T18:29:50;8.60;99.90
19999;DHT22;10160;50.926;4.374;2022-12-01T18:32:16;8.60;99.90
19999;DHT22;10160;50.926;4.374;2022-12-01T18:34:42;8.60;99.90
19999;DHT22;10160;50.926;4.374;2022-12-01T18:40:49;8.60;99.90
19999;DHT22;10160;50.926;4.374;2022-12-01T18:43:15;8.70;99.90
19999;DHT22;10160;50.926;4.374;2022-12-01T18:45:40;8.70;99.90
19999;DHT22;10160;50.926;4.374;2022-12-01T18:51:31;8.70;99.90
19999;DHT22;10160;50.926;4.374;2022-12-01T18:53:59;8.60;99.90
19999;DHT22;10160;50.926;4.374;2022-12-01T18:56:26;8.60;99.90
19999;DHT22;10160;50.926;4.374;2022-12-01T18:58:56;8.60;99.90
19999;DHT22;10160;50.926;4.374;2022-12-01T19:01:28;8.50;99.90
19999;DHT22;10160;50.926;4.374;2022-12-01T19:03:55;8.40;99.90
19999;DHT22;10160;50.926;4.374;2022-12-01T19:06:21;8.50;99.90
19999;DHT22;10160;50.926;4.374;2022-12-01T19:08:47;8.60;99.90
19999;DHT22;10160;50.926;4.374;2022-12-01T19:11:14;8.50;99.90
19999;DHT22;10160;50.926;4.374;2022-12-01T19:13:39;8.70;99.90
19999;DHT22;10160;50.926;4.374;2022-12-01T19:16:20;8.80;99.90
19999;DHT22;10160;50.926;4.374;2022-12-01T19:21:50;8.40;99.90
19999;DHT22;10160;50.926;4.374;2022-12-01T19:24:17;8.50;99.90
19999;DHT22;10160;50.926;4.374;2022-12-01T19:26:43;8.50;99.90
19999;DHT22;10160;50.926;4.374;2022-12-01T19:29:08;8.50;99.90
19999;DHT22;10160;50.926;4.374;2022-12-01T19:31:34;8.40;99.90
19999;DHT22;10160;50.926;4.374;2022-12-01T19:34:00;8.50;99.90
19999;DHT22;10160;50.926;4.374;2022-12-01T19:36:27;8.60;99.90
19999;DHT22;10160;50.926;4.374;2022-12-01T19:38:54;8.60;99.90
19999;DHT22;10160;50.926;4.374;2022-12-01T19:41:21;8.60;99.90
19999;DHT22;10160;50.926;4.374;2022-12-01T19:43:49;8.70;99.90
19999;DHT22;10160;50.926;4.374;2022-12-01T19:46:18;8.60;99.90
19999;DHT22;10160;50.926;4.374;2022-12-01T19:48:45;8.50;99.90